Straumvik — LEYJ — position and weather

sailwx.info

Track history (hours):
 
Tides and Currents Weather Stations Pressure Air Temp Water Temp Dewpoint Dewpoint Depression Visibility Wind Speed Wind Dir Waves Ship Positions

Straumvik

Last reported at 2016-Dec-03 00:33 UTC. Time now 2016-Dec-03 02:24 UTC.
Position N 60°51' E 005°04'.

Length 50 m; draft 5 m.

Type: Ship. MMSI: 258260000.

Date/timePositionNaut miles runAvg speedWind from/ knotsBaromVisibWave heightAir tempDewpointWater temp
2016-Dec-03 00:33N 60°51' E 005°04'23 7.0
2016-Dec-02 21:19N 60°29' E 004°60'5 6.3
2016-Dec-02 20:32N 60°25' E 005°06'9 1.8
2016-Dec-02 15:32N 60°30' E 004°50'0 0.0
2016-Dec-02 14:33N 60°30' E 004°50'0 0.0
2016-Dec-02 13:33N 60°30' E 004°50'0 0.0
2016-Dec-02 12:32N 60°30' E 004°50'0 0.0
2016-Dec-02 11:33N 60°30' E 004°50'2211.2
2016-Dec-02 09:33N 60°51' E 005°04'0 0.0
2016-Dec-02 08:32N 60°51' E 005°04'2210.9
2016-Dec-02 06:30N 60°30' E 004°50'0 0.0
2016-Dec-02 05:33N 60°30' E 004°50'0 0.0
2016-Dec-02 04:33N 60°30' E 004°50'0 0.0
2016-Dec-02 03:32N 60°30' E 004°50'0 0.0
2016-Dec-02 02:33N 60°30' E 004°50'0 0.0
2016-Dec-02 01:33N 60°30' E 004°50'0 0.0
2016-Dec-02 00:32N 60°30' E 004°50'0 0.0
2016-Dec-01 23:33N 60°30' E 004°50'0 0.1
2016-Dec-01 22:33N 60°30' E 004°50'0 0.0
2016-Dec-01 21:32N 60°30' E 004°50'0 0.0
2016-Dec-01 20:33N 60°30' E 004°50'0 0.0
2016-Dec-01 19:32N 60°30' E 004°50'0 0.0
2016-Dec-01 18:33N 60°30' E 004°50'0 0.0
2016-Dec-01 17:33N 60°30' E 004°50'0 0.0
2016-Dec-01 16:33N 60°30' E 004°50'0 0.0
2016-Dec-01 15:33N 60°30' E 004°50'0 0.0
2016-Dec-01 14:33N 60°30' E 004°50'0 0.0
2016-Dec-01 13:32N 60°30' E 004°50'0 0.0
2016-Dec-01 12:33N 60°30' E 004°50'0 0.0
2016-Dec-01 11:31N 60°30' E 004°50'0 0.0
2016-Dec-01 10:33N 60°30' E 004°50'0 0.0
2016-Dec-01 09:33N 60°30' E 004°50'0 0.0
2016-Dec-01 08:33N 60°30' E 004°50'0 0.0
2016-Dec-01 07:33N 60°30' E 004°50'0 0.0
2016-Dec-01 06:33N 60°30' E 004°50'0 0.0
2016-Dec-01 05:33N 60°30' E 004°50'8376.3
2016-Dec-01 04:28N 59°10' E 005°36'7 7.4
2016-Dec-01 03:33N 59°07' E 005°47'8 7.6
2016-Dec-01 02:34N 58°60' E 005°52'8584.4
2016-Dec-01 01:33N 60°22' E 005°10'5 4.5
2016-Dec-01 00:33N 60°18' E 005°12'0 0.0
2016-Nov-30 23:33N 60°18' E 005°12'0 0.0
2016-Nov-30 22:32N 60°18' E 005°12'8384.6
2016-Nov-30 21:34N 58°58' E 005°55'10 9.5
2016-Nov-30 20:33N 59°07' E 005°47'10 9.7
2016-Nov-30 19:34N 59°12' E 005°31'6766.8
2016-Nov-30 18:33N 60°18' E 005°12'0 0.0
2016-Nov-30 17:33N 60°18' E 005°12'0 0.0
2016-Nov-30 16:33N 60°18' E 005°12'0 0.0
2016-Nov-30 15:32N 60°18' E 005°12'0 0.0
2016-Nov-30 14:33N 60°18' E 005°12'0 0.0
2016-Nov-30 13:33N 60°18' E 005°12'0 0.0
2016-Nov-30 12:32N 60°18' E 005°12'0 0.0
2016-Nov-30 11:32N 60°18' E 005°12'0 0.0
2016-Nov-30 10:33N 60°18' E 005°12'0 0.0
2016-Nov-30 09:33N 60°18' E 005°12'0 0.0
2016-Nov-30 08:33N 60°18' E 005°12'0 0.0
2016-Nov-30 07:33N 60°18' E 005°12'0 0.0
2016-Nov-30 06:33N 60°18' E 005°12'0 0.0
2016-Nov-30 05:33N 60°18' E 005°12'0 0.0
2016-Nov-30 04:33N 60°18' E 005°12'0 0.0
2016-Nov-30 03:33N 60°18' E 005°12'0 0.0
2016-Nov-30 02:33N 60°18' E 005°12'0 0.0
2016-Nov-30 01:33N 60°18' E 005°12'0 0.0
2016-Nov-30 00:33N 60°18' E 005°12'0 0.0
2016-Nov-29 23:33N 60°18' E 005°12'0 0.0
2016-Nov-29 22:33N 60°18' E 005°12'2 2.2
2016-Nov-29 21:33N 60°20' E 005°11'5 4.7
2016-Nov-29 20:32N 60°24' E 005°15'4 4.6
2016-Nov-29 19:33N 60°29' E 005°15'5 5.1
2016-Nov-29 18:33N 60°33' E 005°21'2 2.3
2016-Nov-29 17:33N 60°35' E 005°22'0 0.0
2016-Nov-29 16:33N 60°35' E 005°22'0 0.0
2016-Nov-29 15:32N 60°35' E 005°22'0 0.0
2016-Nov-29 14:32N 60°35' E 005°22'0 0.0
2016-Nov-29 13:33N 60°35' E 005°22'0 0.0
2016-Nov-29 12:33N 60°35' E 005°22'0 0.0
2016-Nov-29 11:33N 60°35' E 005°22'0 0.0
2016-Nov-29 10:33N 60°35' E 005°22'0 0.0
2016-Nov-29 09:33N 60°35' E 005°22'0 0.0
2016-Nov-29 08:30N 60°35' E 005°22'0 0.0
2016-Nov-29 07:33N 60°35' E 005°22'0 0.0
2016-Nov-29 06:33N 60°35' E 005°22'0 0.0
2016-Nov-29 05:33N 60°35' E 005°22'0 0.0
2016-Nov-29 04:32N 60°35' E 005°22'4 4.4
2016-Nov-29 03:32N 60°32' E 005°17'5 4.9
2016-Nov-29 02:33N 60°27' E 005°15'5 5.0
2016-Nov-29 01:32N 60°23' E 005°10'6 5.9
2016-Nov-29 00:33N 60°17' E 005°11'5 5.3
2016-Nov-28 23:32N 60°11' E 005°13'6 5.7
2016-Nov-28 22:33N 60°06' E 005°18'4 4.4
2016-Nov-28 21:33N 60°02' E 005°20'6 6.3
2016-Nov-28 20:33N 59°57' E 005°27'5 5.4
2016-Nov-28 19:33N 59°52' E 005°32'4 4.1
2016-Nov-28 18:33N 59°48' E 005°34'5 4.8
2016-Nov-28 17:32N 59°44' E 005°29'7 6.5
2016-Nov-28 16:32N 59°39' E 005°20'5 5.1
2016-Nov-28 15:33N 59°35' E 005°15'3 3.4
2016-Nov-28 14:32N 59°32' E 005°12'4 3.8
2016-Nov-28 13:33N 59°28' E 005°13'4 4.3
2016-Nov-28 12:33N 59°24' E 005°16'0 0.3
2016-Nov-28 11:33N 59°24' E 005°16'3 3.2
2016-Nov-28 10:33N 59°21' E 005°19'4 4.4
2016-Nov-28 09:33N 59°17' E 005°20'4 3.7
2016-Nov-28 08:32N 59°14' E 005°26'4 4.4
2016-Nov-28 07:33N 59°12' E 005°34'6 5.7
2016-Nov-28 06:32N 59°12' E 005°45'5 4.8
2016-Nov-28 05:33N 59°11' E 005°54'5 4.6
2016-Nov-28 04:33N 59°08' E 006°00'4 4.2
2016-Nov-28 03:33N 59°09' E 006°09'1 0.8
2016-Nov-28 02:33N 59°09' E 006°10'0 0.0
2016-Nov-28 01:33N 59°09' E 006°10'0 0.1
2016-Nov-28 00:33N 59°09' E 006°10'0 0.0
2016-Nov-27 23:33N 59°09' E 006°10'0 0.0
2016-Nov-27 22:33N 59°09' E 006°10'0 0.0
2016-Nov-27 21:33N 59°09' E 006°10'0 0.0
2016-Nov-27 20:33N 59°09' E 006°10'0 0.0
2016-Nov-27 19:33N 59°09' E 006°10'0 0.0
2016-Nov-27 18:33N 59°09' E 006°10'0 0.0
2016-Nov-27 17:33N 59°09' E 006°10'0 0.0
2016-Nov-27 16:32N 59°09' E 006°10'0 0.0
2016-Nov-27 15:33N 59°09' E 006°10'0 0.0
2016-Nov-27 14:33N 59°09' E 006°10'0 0.0
2016-Nov-27 13:33N 59°09' E 006°10'0 0.0
2016-Nov-27 12:32N 59°09' E 006°10'0 0.0
2016-Nov-27 11:33N 59°09' E 006°10'0 0.0
2016-Nov-27 10:32N 59°09' E 006°10'0 0.0
2016-Nov-27 09:33N 59°09' E 006°10'0 0.0
2016-Nov-27 08:33N 59°09' E 006°10'0 0.0
2016-Nov-27 07:33N 59°09' E 006°10'4 3.2
2016-Nov-27 06:25N 59°08' E 006°03'5 3.7
2016-Nov-27 05:09N 59°06' E 005°55'4 6.0
2016-Nov-27 04:32N 59°08' E 005°48'7 7.0
2016-Nov-27 03:33N 59°10' E 005°35'7 6.8
2016-Nov-27 02:32N 59°15' E 005°25'5 5.2
2016-Nov-27 01:33N 59°19' E 005°20'7 6.8
2016-Nov-27 00:33N 59°25' E 005°14'6 5.9
2016-Nov-26 23:31N 59°31' E 005°13'14 7.1
2016-Nov-26 21:33N 59°43' E 005°27'8 5.5
2016-Nov-26 20:05N 59°51' E 005°32'3714.6
2016-Nov-26 17:32N 59°14' E 005°27'5151.6
2016-Nov-26 16:32N 60°05' E 005°29'3 3.0
2016-Nov-26 15:33N 60°02' E 005°26'0 0.0
2016-Nov-26 14:33N 60°02' E 005°26'0 0.0
2016-Nov-26 13:33N 60°02' E 005°26'0 0.0
2016-Nov-26 12:33N 60°02' E 005°26'0 0.0
2016-Nov-26 11:33N 60°02' E 005°26'0 0.0
2016-Nov-26 10:33N 60°02' E 005°26'0 0.0
2016-Nov-26 09:33N 60°02' E 005°26'0 0.0
2016-Nov-26 08:34N 60°02' E 005°26'0 0.0
2016-Nov-26 07:32N 60°02' E 005°26'0 0.0
2016-Nov-26 06:33N 60°02' E 005°26'0 0.0
2016-Nov-26 05:33N 60°02' E 005°26'0 0.0
2016-Nov-26 04:33N 60°02' E 005°26'0 0.0
2016-Nov-26 03:33N 60°02' E 005°26'0 0.0
2016-Nov-26 02:33N 60°02' E 005°26'0 0.0
2016-Nov-26 01:33N 60°02' E 005°26'0 0.0
2016-Nov-26 00:34N 60°02' E 005°26'5753.8
2016-Nov-25 23:30N 59°09' E 006°06'5759.9
2016-Nov-25 22:32N 60°02' E 005°26'5152.4
2016-Nov-25 21:34N 59°11' E 005°33'5151.1
2016-Nov-25 20:33N 60°02' E 005°26'0 0.0
2016-Nov-25 19:33N 60°02' E 005°26'0 0.0
2016-Nov-25 18:33N 60°02' E 005°26'1 0.9
2016-Nov-25 17:33N 60°03' E 005°28'5 4.8
2016-Nov-25 16:31N 60°06' E 005°36'  
Track history (hours):
 
Tides and Currents Weather Stations Pressure Air Temp Water Temp Dewpoint Dewpoint Depression Visibility Wind Speed Wind Dir Waves Ship Positions

Straumvik

Last reported at 2016-Dec-03 00:33 UTC. Time now 2016-Dec-03 02:24 UTC.
Position N 60°51' E 005°04'.

Length 50 m; draft 5 m.

Type: Ship. MMSI: 258260000.

Date/timePositionNaut miles runAvg speedWind from/ knotsBaromVisibWave heightAir tempDewpointWater temp
2016-Dec-03 00:33N 60°51' E 005°04'23 7.0
2016-Dec-02 21:19N 60°29' E 004°60'5 6.3
2016-Dec-02 20:32N 60°25' E 005°06'9 1.8
2016-Dec-02 15:32N 60°30' E 004°50'0 0.0
2016-Dec-02 14:33N 60°30' E 004°50'0 0.0
2016-Dec-02 13:33N 60°30' E 004°50'0 0.0
2016-Dec-02 12:32N 60°30' E 004°50'0 0.0
2016-Dec-02 11:33N 60°30' E 004°50'2211.2
2016-Dec-02 09:33N 60°51' E 005°04'0 0.0
2016-Dec-02 08:32N 60°51' E 005°04'2210.9
2016-Dec-02 06:30N 60°30' E 004°50'0 0.0
2016-Dec-02 05:33N 60°30' E 004°50'0 0.0
2016-Dec-02 04:33N 60°30' E 004°50'0 0.0
2016-Dec-02 03:32N 60°30' E 004°50'0 0.0
2016-Dec-02 02:33N 60°30' E 004°50'0 0.0
2016-Dec-02 01:33N 60°30' E 004°50'0 0.0
2016-Dec-02 00:32N 60°30' E 004°50'0 0.0
2016-Dec-01 23:33N 60°30' E 004°50'0 0.1
2016-Dec-01 22:33N 60°30' E 004°50'0 0.0
2016-Dec-01 21:32N 60°30' E 004°50'0 0.0
2016-Dec-01 20:33N 60°30' E 004°50'0 0.0
2016-Dec-01 19:32N 60°30' E 004°50'0 0.0
2016-Dec-01 18:33N 60°30' E 004°50'0 0.0
2016-Dec-01 17:33N 60°30' E 004°50'0 0.0
2016-Dec-01 16:33N 60°30' E 004°50'0 0.0
2016-Dec-01 15:33N 60°30' E 004°50'0 0.0
2016-Dec-01 14:33N 60°30' E 004°50'0 0.0
2016-Dec-01 13:32N 60°30' E 004°50'0 0.0
2016-Dec-01 12:33N 60°30' E 004°50'0 0.0
2016-Dec-01 11:31N 60°30' E 004°50'0 0.0
2016-Dec-01 10:33N 60°30' E 004°50'0 0.0
2016-Dec-01 09:33N 60°30' E 004°50'0 0.0
2016-Dec-01 08:33N 60°30' E 004°50'0 0.0
2016-Dec-01 07:33N 60°30' E 004°50'0 0.0
2016-Dec-01 06:33N 60°30' E 004°50'0 0.0
2016-Dec-01 05:33N 60°30' E 004°50'8376.3
2016-Dec-01 04:28N 59°10' E 005°36'7 7.4
2016-Dec-01 03:33N 59°07' E 005°47'8 7.6
2016-Dec-01 02:34N 58°60' E 005°52'8584.4
2016-Dec-01 01:33N 60°22' E 005°10'5 4.5
2016-Dec-01 00:33N 60°18' E 005°12'0 0.0
2016-Nov-30 23:33N 60°18' E 005°12'0 0.0
2016-Nov-30 22:32N 60°18' E 005°12'8384.6
2016-Nov-30 21:34N 58°58' E 005°55'10 9.5
2016-Nov-30 20:33N 59°07' E 005°47'10 9.7
2016-Nov-30 19:34N 59°12' E 005°31'6766.8
2016-Nov-30 18:33N 60°18' E 005°12'0 0.0
2016-Nov-30 17:33N 60°18' E 005°12'0 0.0
2016-Nov-30 16:33N 60°18' E 005°12'0 0.0
2016-Nov-30 15:32N 60°18' E 005°12'0 0.0
2016-Nov-30 14:33N 60°18' E 005°12'0 0.0
2016-Nov-30 13:33N 60°18' E 005°12'0 0.0
2016-Nov-30 12:32N 60°18' E 005°12'0 0.0
2016-Nov-30 11:32N 60°18' E 005°12'0 0.0
2016-Nov-30 10:33N 60°18' E 005°12'0 0.0
2016-Nov-30 09:33N 60°18' E 005°12'0 0.0
2016-Nov-30 08:33N 60°18' E 005°12'0 0.0
2016-Nov-30 07:33N 60°18' E 005°12'0 0.0
2016-Nov-30 06:33N 60°18' E 005°12'0 0.0
2016-Nov-30 05:33N 60°18' E 005°12'0 0.0
2016-Nov-30 04:33N 60°18' E 005°12'0 0.0
2016-Nov-30 03:33N 60°18' E 005°12'0 0.0
2016-Nov-30 02:33N 60°18' E 005°12'0 0.0
2016-Nov-30 01:33N 60°18' E 005°12'0 0.0
2016-Nov-30 00:33N 60°18' E 005°12'0 0.0
2016-Nov-29 23:33N 60°18' E 005°12'0 0.0
2016-Nov-29 22:33N 60°18' E 005°12'2 2.2
2016-Nov-29 21:33N 60°20' E 005°11'5 4.7
2016-Nov-29 20:32N 60°24' E 005°15'4 4.6
2016-Nov-29 19:33N 60°29' E 005°15'5 5.1
2016-Nov-29 18:33N 60°33' E 005°21'2 2.3
2016-Nov-29 17:33N 60°35' E 005°22'0 0.0
2016-Nov-29 16:33N 60°35' E 005°22'0 0.0
2016-Nov-29 15:32N 60°35' E 005°22'0 0.0
2016-Nov-29 14:32N 60°35' E 005°22'0 0.0
2016-Nov-29 13:33N 60°35' E 005°22'0 0.0
2016-Nov-29 12:33N 60°35' E 005°22'0 0.0
2016-Nov-29 11:33N 60°35' E 005°22'0 0.0
2016-Nov-29 10:33N 60°35' E 005°22'0 0.0
2016-Nov-29 09:33N 60°35' E 005°22'0 0.0
2016-Nov-29 08:30N 60°35' E 005°22'0 0.0
2016-Nov-29 07:33N 60°35' E 005°22'0 0.0
2016-Nov-29 06:33N 60°35' E 005°22'0 0.0
2016-Nov-29 05:33N 60°35' E 005°22'0 0.0
2016-Nov-29 04:32N 60°35' E 005°22'4 4.4
2016-Nov-29 03:32N 60°32' E 005°17'5 4.9
2016-Nov-29 02:33N 60°27' E 005°15'5 5.0
2016-Nov-29 01:32N 60°23' E 005°10'6 5.9
2016-Nov-29 00:33N 60°17' E 005°11'5 5.3
2016-Nov-28 23:32N 60°11' E 005°13'6 5.7
2016-Nov-28 22:33N 60°06' E 005°18'4 4.4
2016-Nov-28 21:33N 60°02' E 005°20'6 6.3
2016-Nov-28 20:33N 59°57' E 005°27'5 5.4
2016-Nov-28 19:33N 59°52' E 005°32'4 4.1
2016-Nov-28 18:33N 59°48' E 005°34'5 4.8
2016-Nov-28 17:32N 59°44' E 005°29'7 6.5
2016-Nov-28 16:32N 59°39' E 005°20'5 5.1
2016-Nov-28 15:33N 59°35' E 005°15'3 3.4
2016-Nov-28 14:32N 59°32' E 005°12'4 3.8
2016-Nov-28 13:33N 59°28' E 005°13'4 4.3
2016-Nov-28 12:33N 59°24' E 005°16'0 0.3
2016-Nov-28 11:33N 59°24' E 005°16'3 3.2
2016-Nov-28 10:33N 59°21' E 005°19'4 4.4
2016-Nov-28 09:33N 59°17' E 005°20'4 3.7
2016-Nov-28 08:32N 59°14' E 005°26'4 4.4
2016-Nov-28 07:33N 59°12' E 005°34'6 5.7
2016-Nov-28 06:32N 59°12' E 005°45'5 4.8
2016-Nov-28 05:33N 59°11' E 005°54'5 4.6
2016-Nov-28 04:33N 59°08' E 006°00'4 4.2
2016-Nov-28 03:33N 59°09' E 006°09'1 0.8
2016-Nov-28 02:33N 59°09' E 006°10'0 0.0
2016-Nov-28 01:33N 59°09' E 006°10'0 0.1
2016-Nov-28 00:33N 59°09' E 006°10'0 0.0
2016-Nov-27 23:33N 59°09' E 006°10'0 0.0
2016-Nov-27 22:33N 59°09' E 006°10'0 0.0
2016-Nov-27 21:33N 59°09' E 006°10'0 0.0
2016-Nov-27 20:33N 59°09' E 006°10'0 0.0
2016-Nov-27 19:33N 59°09' E 006°10'0 0.0
2016-Nov-27 18:33N 59°09' E 006°10'0 0.0
2016-Nov-27 17:33N 59°09' E 006°10'0 0.0
2016-Nov-27 16:32N 59°09' E 006°10'0 0.0
2016-Nov-27 15:33N 59°09' E 006°10'0 0.0
2016-Nov-27 14:33N 59°09' E 006°10'0 0.0
2016-Nov-27 13:33N 59°09' E 006°10'0 0.0
2016-Nov-27 12:32N 59°09' E 006°10'0 0.0
2016-Nov-27 11:33N 59°09' E 006°10'0 0.0
2016-Nov-27 10:32N 59°09' E 006°10'0 0.0
2016-Nov-27 09:33N 59°09' E 006°10'0 0.0
2016-Nov-27 08:33N 59°09' E 006°10'0 0.0
2016-Nov-27 07:33N 59°09' E 006°10'4 3.2
2016-Nov-27 06:25N 59°08' E 006°03'5 3.7
2016-Nov-27 05:09N 59°06' E 005°55'4 6.0
2016-Nov-27 04:32N 59°08' E 005°48'7 7.0
2016-Nov-27 03:33N 59°10' E 005°35'7 6.8
2016-Nov-27 02:32N 59°15' E 005°25'5 5.2
2016-Nov-27 01:33N 59°19' E 005°20'7 6.8
2016-Nov-27 00:33N 59°25' E 005°14'6 5.9
2016-Nov-26 23:31N 59°31' E 005°13'14 7.1
2016-Nov-26 21:33N 59°43' E 005°27'8 5.5
2016-Nov-26 20:05N 59°51' E 005°32'3714.6
2016-Nov-26 17:32N 59°14' E 005°27'5151.6
2016-Nov-26 16:32N 60°05' E 005°29'3 3.0
2016-Nov-26 15:33N 60°02' E 005°26'0 0.0
2016-Nov-26 14:33N 60°02' E 005°26'0 0.0
2016-Nov-26 13:33N 60°02' E 005°26'0 0.0
2016-Nov-26 12:33N 60°02' E 005°26'0 0.0
2016-Nov-26 11:33N 60°02' E 005°26'0 0.0
2016-Nov-26 10:33N 60°02' E 005°26'0 0.0
2016-Nov-26 09:33N 60°02' E 005°26'0 0.0
2016-Nov-26 08:34N 60°02' E 005°26'0 0.0
2016-Nov-26 07:32N 60°02' E 005°26'0 0.0
2016-Nov-26 06:33N 60°02' E 005°26'0 0.0
2016-Nov-26 05:33N 60°02' E 005°26'0 0.0
2016-Nov-26 04:33N 60°02' E 005°26'0 0.0
2016-Nov-26 03:33N 60°02' E 005°26'0 0.0
2016-Nov-26 02:33N 60°02' E 005°26'0 0.0
2016-Nov-26 01:33N 60°02' E 005°26'0 0.0
2016-Nov-26 00:34N 60°02' E 005°26'5753.8
2016-Nov-25 23:30N 59°09' E 006°06'5759.9
2016-Nov-25 22:32N 60°02' E 005°26'5152.4
2016-Nov-25 21:34N 59°11' E 005°33'5151.1
2016-Nov-25 20:33N 60°02' E 005°26'0 0.0
2016-Nov-25 19:33N 60°02' E 005°26'0 0.0
2016-Nov-25 18:33N 60°02' E 005°26'1 0.9
2016-Nov-25 17:33N 60°03' E 005°28'5 4.8
2016-Nov-25 16:31N 60°06' E 005°36'  

Dump ship's entire track history